createdAt,value
2018-12-13T00:01:01.198Z,11.93
2018-12-13T00:03:29.830Z,12.20
2018-12-13T00:05:58.446Z,10.37
2018-12-13T00:08:27.023Z,11.90
2018-12-13T00:10:55.638Z,11.47
2018-12-13T00:13:24.331Z,10.40
2018-12-13T00:15:52.976Z,10.83
2018-12-13T00:18:21.600Z,13.80
2018-12-13T00:20:50.250Z,13.00
2018-12-13T00:23:18.900Z,12.43
2018-12-13T00:25:47.534Z,17.43
2018-12-13T00:28:16.202Z,14.53
2018-12-13T00:30:44.838Z,13.43
2018-12-13T00:33:13.554Z,20.43
2018-12-13T00:35:42.330Z,15.30
2018-12-13T00:39:14.131Z,13.27
2018-12-13T00:41:43.034Z,16.80
2018-12-13T00:44:12.478Z,15.63
2018-12-13T00:46:41.074Z,16.10
2018-12-13T00:49:10.406Z,15.57
2018-12-13T00:51:39.955Z,16.77
2018-12-13T00:54:08.498Z,16.57
2018-12-13T00:56:37.157Z,17.47
2018-12-13T00:59:05.820Z,14.30
2018-12-13T01:01:34.434Z,15.63
2018-12-13T01:04:03.081Z,15.23
2018-12-13T01:06:32.681Z,13.50
2018-12-13T01:09:01.304Z,13.80
2018-12-13T01:11:29.865Z,11.90
2018-12-13T01:13:58.547Z,11.80
2018-12-13T01:16:27.222Z,12.80
2018-12-13T01:18:55.883Z,12.50
2018-12-13T01:21:24.517Z,10.53
2018-12-13T01:23:53.162Z,11.40
2018-12-13T01:26:21.773Z,11.33
2018-12-13T01:28:50.381Z,11.40
2018-12-13T01:31:19.031Z,10.37
2018-12-13T01:33:47.647Z,10.10
2018-12-13T01:36:16.259Z,10.97
2018-12-13T01:38:44.854Z,10.70
2018-12-13T01:41:13.499Z,10.13
2018-12-13T01:43:42.095Z,11.23
2018-12-13T01:46:10.679Z,10.97
2018-12-13T01:48:39.315Z,10.93
2018-12-13T01:51:07.928Z,12.00
2018-12-13T01:53:36.538Z,12.07
2018-12-13T01:56:05.157Z,11.13
2018-12-13T01:58:33.757Z,11.30
2018-12-13T02:01:02.386Z,11.80
2018-12-13T02:03:31.037Z,11.60
2018-12-13T02:05:59.695Z,11.57
2018-12-13T02:08:28.335Z,12.63
2018-12-13T02:10:56.915Z,11.33
2018-12-13T02:13:26.276Z,9.73
2018-12-13T02:15:54.912Z,10.27
2018-12-13T02:18:23.587Z,10.90
2018-12-13T02:20:52.211Z,10.23
2018-12-13T02:23:20.801Z,9.73
2018-12-13T02:25:49.521Z,7.87
2018-12-13T02:28:18.999Z,9.77
2018-12-13T02:30:47.659Z,10.20
2018-12-13T02:33:16.213Z,9.80
2018-12-13T02:35:44.814Z,10.53
2018-12-13T02:38:13.451Z,11.93
2018-12-13T02:40:42.017Z,12.23
2018-12-13T02:43:10.657Z,12.13
2018-12-13T02:45:39.265Z,12.70
2018-12-13T02:48:07.913Z,11.97
2018-12-13T02:50:36.567Z,11.63
2018-12-13T02:53:05.141Z,10.97
2018-12-13T02:55:33.750Z,12.07
2018-12-13T02:58:02.380Z,11.57
2018-12-13T03:00:31.005Z,12.23
2018-12-13T03:02:59.630Z,12.33
2018-12-13T03:05:28.275Z,11.70
2018-12-13T03:07:56.882Z,12.37
2018-12-13T03:10:26.402Z,10.53
2018-12-13T03:12:55.548Z,9.83
2018-12-13T03:15:24.175Z,10.73
2018-12-13T03:17:52.828Z,11.67
2018-12-13T03:20:21.455Z,10.03
2018-12-13T03:22:50.068Z,9.97
2018-12-13T03:25:18.678Z,10.43
2018-12-13T03:27:47.273Z,10.30
2018-12-13T03:30:15.906Z,11.07
2018-12-13T03:32:44.805Z,9.77
2018-12-13T03:35:13.452Z,11.23
2018-12-13T03:37:42.049Z,10.63
2018-12-13T03:40:10.795Z,10.90
2018-12-13T03:42:40.972Z,11.27
2018-12-13T03:45:09.646Z,11.13
2018-12-13T03:47:38.230Z,11.10
2018-12-13T03:50:06.917Z,10.57
2018-12-13T03:52:35.562Z,11.17
2018-12-13T03:55:04.469Z,10.23
2018-12-13T03:57:33.135Z,9.67
2018-12-13T04:00:01.755Z,9.37
2018-12-13T04:02:30.421Z,10.40
2018-12-13T04:04:59.304Z,9.57
2018-12-13T04:07:28.021Z,9.70
2018-12-13T04:09:56.641Z,11.70
2018-12-13T04:12:25.261Z,12.30
2018-12-13T04:14:53.797Z,13.30
2018-12-13T04:17:22.444Z,11.10
2018-12-13T04:19:51.171Z,11.60
2018-12-13T04:22:19.777Z,12.67
2018-12-13T04:24:48.419Z,11.90
2018-12-13T04:27:17.014Z,10.97
2018-12-13T04:29:45.580Z,9.43
2018-12-13T04:32:14.210Z,9.53
2018-12-13T04:34:42.845Z,10.53
2018-12-13T04:37:11.490Z,10.63
2018-12-13T04:39:40.113Z,11.27
2018-12-13T04:42:08.721Z,11.50
2018-12-13T04:44:37.944Z,10.23
2018-12-13T04:47:06.819Z,11.10
2018-12-13T04:49:36.322Z,10.30
2018-12-13T04:52:04.971Z,10.03
2018-12-13T04:54:33.615Z,9.80
2018-12-13T04:57:02.276Z,8.60
2018-12-13T04:59:30.970Z,9.27
2018-12-13T05:01:59.617Z,8.90
2018-12-13T05:04:28.996Z,8.20
2018-12-13T05:06:57.738Z,8.97
2018-12-13T05:09:26.443Z,9.23
2018-12-13T05:11:55.004Z,8.43
2018-12-13T05:14:23.865Z,8.93
2018-12-13T05:16:52.722Z,8.63
2018-12-13T05:19:21.416Z,9.17
2018-12-13T05:21:50.075Z,8.83
2018-12-13T05:24:18.850Z,8.40
2018-12-13T05:26:48.045Z,8.37
2018-12-13T05:29:16.661Z,9.33
2018-12-13T05:31:45.261Z,9.77
2018-12-13T05:34:13.881Z,10.10
2018-12-13T05:36:42.494Z,8.03
2018-12-13T05:39:11.096Z,9.10
2018-12-13T05:41:39.827Z,9.63
2018-12-13T05:44:08.524Z,10.53
2018-12-13T05:46:37.265Z,10.73
2018-12-13T05:49:05.892Z,11.17
2018-12-13T05:51:34.568Z,10.80
2018-12-13T05:54:03.292Z,10.33
2018-12-13T05:56:31.961Z,10.57
2018-12-13T05:59:00.579Z,9.87
2018-12-13T06:01:29.319Z,10.77
2018-12-13T06:03:57.969Z,9.90
2018-12-13T06:06:26.566Z,10.43
2018-12-13T06:08:55.205Z,11.03
2018-12-13T06:11:23.893Z,11.60
2018-12-13T06:13:52.489Z,10.87
2018-12-13T06:16:21.116Z,9.73
2018-12-13T06:18:49.754Z,9.67
2018-12-13T06:21:18.364Z,9.83
2018-12-13T06:23:47.036Z,8.00
2018-12-13T06:26:15.640Z,7.80
2018-12-13T06:28:44.290Z,8.60
2018-12-13T06:31:13.007Z,8.53
2018-12-13T06:33:41.662Z,8.20
2018-12-13T06:36:10.317Z,8.77
2018-12-13T06:38:39.001Z,9.40
2018-12-13T06:41:07.633Z,9.80
2018-12-13T06:43:36.338Z,9.87
2018-12-13T06:46:04.961Z,9.73
2018-12-13T06:48:33.607Z,9.93
2018-12-13T06:51:02.290Z,9.73
2018-12-13T06:53:30.952Z,10.30
2018-12-13T06:56:00.214Z,10.50
2018-12-13T06:58:28.828Z,11.30
2018-12-13T07:00:57.463Z,11.50
2018-12-13T07:03:26.055Z,10.50
2018-12-13T07:05:54.803Z,10.33
2018-12-13T07:08:23.472Z,10.50
2018-12-13T07:10:52.137Z,9.57
2018-12-13T07:13:20.792Z,9.60
2018-12-13T07:15:49.506Z,7.80
2018-12-13T07:18:18.138Z,7.37
2018-12-13T07:20:46.801Z,7.27
2018-12-13T07:23:15.454Z,11.93
2018-12-13T07:25:44.178Z,8.50
2018-12-13T07:28:12.852Z,9.67
2018-12-13T07:30:41.504Z,10.13
2018-12-13T07:33:10.183Z,8.83
2018-12-13T07:35:38.874Z,9.23
2018-12-13T07:38:14.091Z,9.37
2018-12-13T07:40:38.394Z,8.70
2018-12-13T07:43:06.972Z,10.37
2018-12-13T07:45:35.582Z,9.37
2018-12-13T07:48:04.257Z,11.00
2018-12-13T07:50:32.923Z,11.33
2018-12-13T07:53:01.627Z,9.67
2018-12-13T07:55:30.252Z,8.47
2018-12-13T07:57:58.907Z,9.53
2018-12-13T08:00:27.555Z,8.43
2018-12-13T08:02:56.294Z,8.80
2018-12-13T08:05:24.971Z,8.43
2018-12-13T08:07:53.622Z,9.23
2018-12-13T08:10:22.250Z,11.03
2018-12-13T08:12:50.961Z,11.17
2018-12-13T08:15:19.537Z,11.47
2018-12-13T08:17:48.115Z,11.20
2018-12-13T08:20:16.774Z,11.63
2018-12-13T08:22:45.437Z,11.80
2018-12-13T08:25:14.471Z,11.17
2018-12-13T08:27:43.062Z,11.20
2018-12-13T08:30:12.006Z,17.67
2018-12-13T08:32:40.641Z,13.87
2018-12-13T08:35:09.351Z,15.23
2018-12-13T08:37:37.933Z,14.97
2018-12-13T08:40:07.260Z,15.07
2018-12-13T08:42:35.947Z,16.73
2018-12-13T08:45:04.891Z,16.90
2018-12-13T08:47:33.453Z,16.63
2018-12-13T08:50:02.118Z,16.83
2018-12-13T08:52:30.753Z,17.00
2018-12-13T08:54:59.488Z,19.40
2018-12-13T08:57:28.112Z,15.57
2018-12-13T08:59:56.724Z,16.10
2018-12-13T09:02:25.355Z,15.50
2018-12-13T09:04:54.083Z,18.47
2018-12-13T09:07:22.750Z,17.83
2018-12-13T09:09:51.396Z,14.53
2018-12-13T09:12:20.137Z,15.80
2018-12-13T09:14:48.888Z,14.60
2018-12-13T09:17:17.572Z,17.63
2018-12-13T09:19:46.214Z,21.07
2018-12-13T09:22:14.785Z,22.43
2018-12-13T09:24:43.447Z,23.77
2018-12-13T09:27:12.086Z,23.77
2018-12-13T09:29:40.772Z,23.50
2018-12-13T09:32:09.434Z,23.20
2018-12-13T09:34:38.043Z,31.00
2018-12-13T09:37:06.935Z,25.40
2018-12-13T09:39:35.590Z,24.73
2018-12-13T09:42:04.739Z,21.97
2018-12-13T09:44:33.418Z,22.13
2018-12-13T09:47:02.125Z,22.93
2018-12-13T09:49:30.850Z,22.47
2018-12-13T09:51:59.593Z,19.90
2018-12-13T09:54:28.725Z,20.10
2018-12-13T09:56:57.392Z,19.90
2018-12-13T09:59:26.062Z,20.63
2018-12-13T10:01:54.825Z,21.40
2018-12-13T10:04:23.471Z,19.60
2018-12-13T10:06:52.101Z,18.50
2018-12-13T10:09:20.916Z,18.93
2018-12-13T10:11:49.582Z,19.87
2018-12-13T10:14:18.270Z,19.03
2018-12-13T10:16:47.005Z,19.20
2018-12-13T10:19:15.658Z,19.37
2018-12-13T10:21:44.423Z,21.07
2018-12-13T10:24:13.092Z,17.73
2018-12-13T10:26:41.878Z,18.13
2018-12-13T10:29:10.500Z,17.87
2018-12-13T10:31:39.098Z,17.97
2018-12-13T10:34:07.867Z,19.10
2018-12-13T10:36:36.525Z,18.67
2018-12-13T10:39:08.473Z,18.73
2018-12-13T10:41:37.169Z,19.47
2018-12-13T10:44:05.810Z,19.60
2018-12-13T10:46:34.426Z,19.07
2018-12-13T10:49:03.128Z,18.50
2018-12-13T10:51:31.717Z,17.43
2018-12-13T10:54:00.376Z,17.77
2018-12-13T10:56:29.044Z,18.50
2018-12-13T10:58:57.848Z,16.97
2018-12-13T11:01:31.615Z,16.30
2018-12-13T11:04:00.262Z,15.67
2018-12-13T11:06:29.156Z,17.00
2018-12-13T11:08:59.531Z,16.57
2018-12-13T11:11:28.537Z,15.37
2018-12-13T11:13:57.207Z,15.27
2018-12-13T11:16:25.851Z,16.17
2018-12-13T11:18:54.513Z,14.50
2018-12-13T11:21:23.209Z,14.77
2018-12-13T11:23:51.910Z,13.80
2018-12-13T11:26:20.614Z,14.67
2018-12-13T11:30:01.750Z,13.00
2018-12-13T11:32:31.375Z,13.33
2018-12-13T11:35:00.158Z,12.90
2018-12-13T11:37:28.739Z,12.83
2018-12-13T11:39:57.385Z,12.13
2018-12-13T11:42:26.065Z,13.53
2018-12-13T11:44:54.652Z,12.53
2018-12-13T11:47:23.299Z,13.17
2018-12-13T11:49:51.960Z,12.60
2018-12-13T11:52:20.628Z,13.70
2018-12-13T11:54:49.442Z,12.70
2018-12-13T11:57:18.063Z,16.07
2018-12-13T11:59:46.772Z,12.50
2018-12-13T12:02:15.535Z,11.20
2018-12-13T12:04:44.210Z,11.50
2018-12-13T12:07:12.863Z,12.63
2018-12-13T12:09:41.541Z,11.37
2018-12-13T12:12:10.281Z,10.50
2018-12-13T12:14:38.847Z,11.33
2018-12-13T12:17:07.612Z,11.50
2018-12-13T12:19:36.279Z,9.80
2018-12-13T12:22:04.942Z,10.50
2018-12-13T12:24:33.642Z,9.53
2018-12-13T12:27:02.276Z,9.40
2018-12-13T12:29:30.916Z,10.13
2018-12-13T12:31:59.564Z,9.43
2018-12-13T12:34:28.192Z,10.47
2018-12-13T12:36:56.848Z,8.53
2018-12-13T12:39:25.538Z,7.27
2018-12-13T12:41:54.137Z,6.90
2018-12-13T12:44:22.826Z,5.93
2018-12-13T12:46:51.447Z,6.10
2018-12-13T12:49:20.086Z,5.60
2018-12-13T12:51:49.017Z,5.83
2018-12-13T12:54:17.657Z,5.97
2018-12-13T12:56:46.327Z,6.40
2018-12-13T12:59:15.016Z,6.07
2018-12-13T13:01:43.633Z,5.83
2018-12-13T13:04:12.261Z,6.10
2018-12-13T13:06:40.882Z,6.90
2018-12-13T13:09:09.874Z,6.60
2018-12-13T13:11:38.819Z,6.97
2018-12-13T13:14:07.429Z,6.13
2018-12-13T13:16:36.031Z,6.17
2018-12-13T13:19:04.727Z,6.03
2018-12-13T13:21:33.359Z,6.00
2018-12-13T13:24:02.024Z,5.80
2018-12-13T13:26:30.634Z,7.53
2018-12-13T13:28:59.252Z,6.63
2018-12-13T13:31:27.867Z,6.37
2018-12-13T13:33:56.517Z,6.80
2018-12-13T13:36:25.184Z,20.37
2018-12-13T13:38:54.634Z,7.47
2018-12-13T13:41:23.506Z,7.37
2018-12-13T13:43:52.098Z,7.57
2018-12-13T13:46:20.743Z,7.33
2018-12-13T13:48:49.360Z,7.67
2018-12-13T13:51:18.254Z,7.60
2018-12-13T13:53:47.051Z,7.87
2018-12-13T13:56:15.688Z,7.90
2018-12-13T13:58:44.313Z,6.90
2018-12-13T14:01:12.994Z,7.43
2018-12-13T14:03:41.624Z,7.60
2018-12-13T14:06:10.408Z,7.40
2018-12-13T14:08:39.143Z,8.57
2018-12-13T14:11:08.525Z,7.40
2018-12-13T14:13:37.100Z,8.10
2018-12-13T14:16:05.933Z,7.93
2018-12-13T14:18:34.729Z,7.57
2018-12-13T14:21:03.396Z,7.70
2018-12-13T14:23:31.970Z,9.83
2018-12-13T14:26:00.817Z,9.13
2018-12-13T14:28:29.474Z,8.70
2018-12-13T14:30:58.158Z,8.23
2018-12-13T14:33:26.817Z,8.23
2018-12-13T14:35:55.442Z,9.10
2018-12-13T14:38:26.052Z,9.30
2018-12-13T14:40:54.703Z,9.20
2018-12-13T14:43:23.348Z,9.30
2018-12-13T14:45:53.705Z,9.77
2018-12-13T14:48:26.680Z,9.60
2018-12-13T14:50:55.383Z,9.00
2018-12-13T14:53:24.349Z,9.03
2018-12-13T14:55:53.065Z,13.30
2018-12-13T14:58:22.407Z,13.90
2018-12-13T15:00:51.150Z,12.23
2018-12-13T15:03:19.790Z,12.97
2018-12-13T15:05:48.421Z,13.97
2018-12-13T15:08:17.066Z,10.60
2018-12-13T15:10:45.738Z,11.60
2018-12-13T15:13:14.287Z,11.50
2018-12-13T15:15:42.937Z,12.10
2018-12-13T15:18:11.925Z,11.93
2018-12-13T15:20:40.627Z,12.00
2018-12-13T15:23:09.220Z,9.87
2018-12-13T15:28:13.388Z,9.77
2018-12-13T15:30:42.085Z,9.37
2018-12-13T15:33:10.750Z,9.20
2018-12-13T15:35:39.390Z,9.67
2018-12-13T15:38:08.023Z,8.30
2018-12-13T15:40:37.720Z,9.60
2018-12-13T15:43:06.383Z,9.03
2018-12-13T15:45:35.172Z,10.23
2018-12-13T15:48:03.808Z,9.23
2018-12-13T15:50:32.475Z,9.97
2018-12-13T15:53:01.335Z,10.97
2018-12-13T15:55:30.119Z,10.07
2018-12-13T15:57:58.735Z,12.47
2018-12-13T16:00:27.402Z,12.67
2018-12-13T16:02:56.609Z,14.33
2018-12-13T16:05:25.304Z,15.03
2018-12-13T16:07:53.907Z,13.53
2018-12-13T16:10:23.004Z,11.90
2018-12-13T16:12:51.592Z,10.80
2018-12-13T16:15:20.295Z,11.33
2018-12-13T16:17:49.056Z,11.37
2018-12-13T16:20:17.665Z,12.83
2018-12-13T16:22:46.293Z,13.00
2018-12-13T16:25:15.043Z,10.47
2018-12-13T16:27:43.920Z,9.13
2018-12-13T16:30:12.727Z,10.53
2018-12-13T16:32:41.737Z,10.47
2018-12-13T16:35:10.365Z,11.70
2018-12-13T16:37:39.001Z,11.40
2018-12-13T16:40:10.488Z,12.63
2018-12-13T16:42:38.735Z,13.57
2018-12-13T16:45:07.382Z,12.80
2018-12-13T16:47:36.687Z,13.33
2018-12-13T16:50:05.667Z,12.00
2018-12-13T16:52:34.404Z,11.70
2018-12-13T16:55:03.196Z,12.00
2018-12-13T16:57:31.882Z,12.70
2018-12-13T17:00:00.500Z,12.60
2018-12-13T17:02:29.115Z,12.60
2018-12-13T17:05:03.381Z,11.67
2018-12-13T17:07:28.456Z,12.77
2018-12-13T17:09:57.113Z,15.53
2018-12-13T17:12:25.776Z,21.57
2018-12-13T17:14:54.498Z,14.20
2018-12-13T17:17:23.080Z,14.30
2018-12-13T17:19:51.828Z,15.47
2018-12-13T17:22:20.893Z,15.83
2018-12-13T17:24:49.568Z,16.17
2018-12-13T17:27:18.242Z,16.63
2018-12-13T17:29:46.893Z,18.43
2018-12-13T17:32:15.553Z,17.97
2018-12-13T17:34:44.178Z,18.57
2018-12-13T17:37:12.719Z,15.63
2018-12-13T17:39:41.426Z,16.33
2018-12-13T17:42:10.090Z,16.73
2018-12-13T17:44:38.753Z,15.97
2018-12-13T17:47:07.453Z,15.90
2018-12-13T17:49:36.143Z,16.37
2018-12-13T17:52:04.925Z,13.73
2018-12-13T17:54:33.680Z,14.30
2018-12-13T17:57:02.324Z,15.00
2018-12-13T17:59:30.963Z,15.37
2018-12-13T18:02:00.580Z,14.77
2018-12-13T18:04:29.218Z,15.80
2018-12-13T18:06:57.855Z,16.87
2018-12-13T18:09:26.451Z,22.47
2018-12-13T18:11:55.182Z,21.10
2018-12-13T18:14:24.689Z,21.13
2018-12-13T18:16:53.264Z,22.23
2018-12-13T18:19:21.953Z,22.80
2018-12-13T18:21:50.622Z,23.23
2018-12-13T18:24:19.269Z,23.03
2018-12-13T18:26:47.917Z,23.97
2018-12-13T18:29:16.604Z,22.13
2018-12-13T18:31:45.286Z,21.00
2018-12-13T18:34:14.563Z,24.40
2018-12-13T18:36:43.226Z,28.70
2018-12-13T18:39:12.071Z,22.03
2018-12-13T18:41:40.712Z,20.97
2018-12-13T18:44:09.368Z,22.57
2018-12-13T18:46:38.115Z,21.87
2018-12-13T18:49:06.779Z,27.23
2018-12-13T18:51:35.525Z,27.47
2018-12-13T18:54:04.313Z,27.47
2018-12-13T18:56:32.893Z,24.40
2018-12-13T18:59:01.465Z,23.00
2018-12-13T19:01:30.094Z,27.17
2018-12-13T19:03:58.723Z,21.10
2018-12-13T19:06:27.695Z,20.00
2018-12-13T19:08:56.423Z,19.00
2018-12-13T19:11:25.269Z,19.20
2018-12-13T19:13:53.918Z,19.40
2018-12-13T19:16:22.781Z,19.47
2018-12-13T19:18:51.832Z,19.00
2018-12-13T19:21:20.406Z,18.93
2018-12-13T19:23:49.211Z,17.93
2018-12-13T19:26:17.829Z,19.13
2018-12-13T19:28:46.385Z,18.93
2018-12-13T19:31:15.165Z,17.77
2018-12-13T19:33:43.776Z,18.90
2018-12-13T19:36:12.746Z,19.43
2018-12-13T19:38:41.429Z,18.40
2018-12-13T19:41:10.018Z,17.20
2018-12-13T19:43:38.791Z,18.30
2018-12-13T19:46:08.281Z,16.77
2018-12-13T19:48:36.897Z,17.90
2018-12-13T19:51:05.911Z,17.53
2018-12-13T19:53:35.291Z,17.07
2018-12-13T19:56:04.204Z,17.00
2018-12-13T19:58:32.822Z,17.47
2018-12-13T20:01:01.620Z,17.63
2018-12-13T20:03:30.401Z,18.43
2018-12-13T20:05:59.076Z,17.33
2018-12-13T20:08:27.738Z,18.67
2018-12-13T20:10:56.347Z,16.60
2018-12-13T20:13:24.973Z,17.97
2018-12-13T20:15:53.617Z,19.03
2018-12-13T20:18:22.407Z,18.93
2018-12-13T20:20:51.143Z,18.03
2018-12-13T20:23:20.292Z,18.60
2018-12-13T20:25:48.960Z,19.07
2018-12-13T20:28:17.710Z,21.17
2018-12-13T20:30:46.543Z,22.17
2018-12-13T20:33:15.210Z,24.37
2018-12-13T20:35:43.917Z,22.83
2018-12-13T20:38:12.832Z,22.53
2018-12-13T20:40:41.519Z,22.93
2018-12-13T20:43:10.194Z,21.43
2018-12-13T20:45:39.021Z,22.53
2018-12-13T20:48:08.685Z,21.70
2018-12-13T20:50:37.487Z,21.10
2018-12-13T20:53:06.373Z,21.87
2018-12-13T20:55:34.970Z,21.77
2018-12-13T20:58:03.574Z,20.37
2018-12-13T21:00:32.378Z,20.17
2018-12-13T21:03:01.004Z,19.73
2018-12-13T21:05:30.507Z,20.50
2018-12-13T21:08:04.436Z,19.20
2018-12-13T21:10:33.392Z,18.73
2018-12-13T21:13:02.050Z,18.90
2018-12-13T21:15:33.575Z,17.23
2018-12-13T21:18:03.199Z,16.97
2018-12-13T21:20:32.638Z,18.27
2018-12-13T21:23:01.292Z,17.37
2018-12-13T21:25:29.962Z,16.53
2018-12-13T21:27:58.673Z,15.97
2018-12-13T21:30:27.263Z,14.50
2018-12-13T21:32:55.874Z,14.10
2018-12-13T21:35:24.491Z,15.07
2018-12-13T21:37:53.072Z,13.70
2018-12-13T21:40:21.765Z,12.03
2018-12-13T21:42:50.464Z,13.37
2018-12-13T21:46:22.296Z,13.10
2018-12-13T21:48:51.852Z,12.37
2018-12-13T21:51:21.109Z,12.63
2018-12-13T21:53:49.988Z,13.13
2018-12-13T21:56:18.653Z,12.83
2018-12-13T21:58:47.400Z,12.33
2018-12-13T22:01:16.104Z,13.10
2018-12-13T22:03:45.188Z,12.40
2018-12-13T22:06:13.932Z,13.07
2018-12-13T22:08:42.539Z,12.33
2018-12-13T22:11:12.703Z,11.30
2018-12-13T22:13:41.391Z,11.53
2018-12-13T22:16:10.137Z,11.93
2018-12-13T22:18:39.918Z,12.13
2018-12-13T22:21:08.608Z,11.70
2018-12-13T22:23:37.305Z,11.40
2018-12-13T22:26:05.965Z,13.87
2018-12-13T22:28:34.548Z,12.30
2018-12-13T22:31:04.323Z,11.70
2018-12-13T22:33:33.143Z,11.37
2018-12-13T22:36:01.793Z,13.13
2018-12-13T22:38:30.442Z,11.87
2018-12-13T22:40:59.052Z,11.63
2018-12-13T22:43:27.761Z,11.43
2018-12-13T22:45:56.343Z,11.87
2018-12-13T22:48:25.925Z,11.40
2018-12-13T22:50:55.565Z,12.00
2018-12-13T22:53:25.206Z,12.00
2018-12-13T22:55:53.933Z,12.00
2018-12-13T22:58:23.163Z,12.73
2018-12-13T23:00:51.788Z,13.37
2018-12-13T23:03:20.459Z,12.43
2018-12-13T23:05:49.105Z,12.67
2018-12-13T23:08:17.819Z,12.93
2018-12-13T23:10:46.366Z,12.23
2018-12-13T23:13:14.973Z,12.77
2018-12-13T23:15:43.598Z,12.67
2018-12-13T23:18:12.480Z,13.13
2018-12-13T23:20:41.174Z,13.67
2018-12-13T23:23:09.911Z,12.93
2018-12-13T23:25:38.588Z,12.17
2018-12-13T23:28:07.144Z,11.80
2018-12-13T23:30:36.314Z,13.97
2018-12-13T23:33:04.914Z,14.33
2018-12-13T23:35:33.509Z,14.77
2018-12-13T23:38:02.158Z,13.30
2018-12-13T23:40:30.860Z,14.57
2018-12-13T23:42:59.397Z,14.03
2018-12-13T23:45:27.942Z,14.70
2018-12-13T23:47:56.606Z,15.93
2018-12-13T23:50:25.140Z,16.63
2018-12-13T23:52:53.790Z,16.77
2018-12-13T23:55:22.393Z,17.97
2018-12-13T23:57:51.011Z,16.80
